createdAt,value
2017-01-21T00:01:10.037Z,1028.69
2017-01-21T00:02:20.336Z,1028.68
2017-01-21T00:03:30.682Z,1028.67
2017-01-21T00:04:40.178Z,1028.65
2017-01-21T00:05:50.074Z,1028.68
2017-01-21T00:07:00.764Z,1028.67
2017-01-21T00:08:11.694Z,1028.67
2017-01-21T00:09:21.994Z,1028.69
2017-01-21T00:10:32.342Z,1028.69
2017-01-21T00:11:41.891Z,1028.69
2017-01-21T00:12:52.558Z,1028.68
2017-01-21T00:14:03.295Z,1028.67
2017-01-21T00:15:13.186Z,1028.67
2017-01-21T00:16:23.078Z,1028.61
2017-01-21T00:17:32.183Z,1028.59
2017-01-21T00:18:42.125Z,1028.56
2017-01-21T00:19:52.431Z,1028.55
2017-01-21T00:21:02.732Z,1028.57
2017-01-21T00:22:13.030Z,1028.56
2017-01-21T00:23:23.332Z,1028.6
2017-01-21T00:24:33.259Z,1028.62
2017-01-21T00:25:43.152Z,1028.66
2017-01-21T00:26:53.053Z,1028.67
2017-01-21T00:28:02.957Z,1028.71
2017-01-21T00:29:13.250Z,1028.7
2017-01-21T00:30:23.554Z,1028.69
2017-01-21T00:31:33.595Z,1028.66
2017-01-21T00:32:43.097Z,1028.69
2017-01-21T00:33:53.782Z,1028.67
2017-01-21T00:35:04.077Z,1028.69
2017-01-21T00:36:14.373Z,1028.72
2017-01-21T00:37:24.663Z,1028.74
2017-01-21T00:38:33.781Z,1028.77
2017-01-21T00:39:43.304Z,1028.78
2017-01-21T00:40:53.591Z,1028.75
2017-01-21T00:42:03.521Z,1028.75
2017-01-21T00:43:13.833Z,1028.77
2017-01-21T00:44:24.148Z,1028.73
2017-01-21T00:45:34.056Z,1028.74
2017-01-21T00:46:44.735Z,1028.75
2017-01-21T00:47:54.634Z,1028.77
2017-01-21T00:49:04.533Z,1028.78
2017-01-21T00:50:15.206Z,1028.78
2017-01-21T00:51:25.497Z,1028.74
2017-01-21T00:52:35.775Z,1028.79
2017-01-21T00:53:45.687Z,1028.78
2017-01-21T00:54:56.384Z,1028.82
2017-01-21T00:56:06.674Z,1028.78
2017-01-21T00:57:16.572Z,1028.77
2017-01-21T00:58:27.245Z,1028.81
2017-01-21T00:59:37.527Z,1028.78
2017-01-21T01:00:47.018Z,1028.72
2017-01-21T01:01:57.354Z,1028.76
2017-01-21T01:03:08.080Z,1028.72
2017-01-21T01:04:18.752Z,1028.78
2017-01-21T01:05:29.436Z,1028.82
2017-01-21T01:06:39.332Z,1028.82
2017-01-21T01:07:50.022Z,1028.82
2017-01-21T01:08:59.926Z,1028.8
2017-01-21T01:10:10.015Z,1028.76
2017-01-21T01:11:20.325Z,1028.76
2017-01-21T01:12:31.019Z,1028.75
2017-01-21T01:13:40.140Z,1028.81
2017-01-21T01:14:50.034Z,1028.81
2017-01-21T01:16:00.320Z,1028.82
2017-01-21T01:17:09.032Z,1028.85
2017-01-21T01:18:19.325Z,1028.91
2017-01-21T01:19:29.632Z,1028.89
2017-01-21T01:20:39.924Z,1028.89
2017-01-21T01:21:49.431Z,1028.91
2017-01-21T01:22:59.313Z,1028.91
2017-01-21T01:24:08.809Z,1028.89
2017-01-21T01:25:18.699Z,1028.86
2017-01-21T01:26:29.395Z,1028.84
2017-01-21T01:27:39.288Z,1028.89
2017-01-21T01:28:49.583Z,1028.89
2017-01-21T01:30:00.279Z,1028.86
2017-01-21T01:31:10.974Z,1028.87
2017-01-21T01:32:20.474Z,1028.91
2017-01-21T01:33:30.430Z,1028.93
2017-01-21T01:34:40.336Z,1028.92
2017-01-21T01:35:50.631Z,1028.94
2017-01-21T01:37:00.532Z,1028.95
2017-01-21T01:38:10.861Z,1028.92
2017-01-21T01:39:20.379Z,1028.86
2017-01-21T01:40:30.674Z,1028.86
2017-01-21T01:41:40.604Z,1028.84
2017-01-21T01:42:50.509Z,1028.88
2017-01-21T01:44:00.809Z,1028.91
2017-01-21T01:45:10.707Z,1028.93
2017-01-21T01:46:21.410Z,1028.86
2017-01-21T01:47:31.691Z,1028.86
2017-01-21T01:48:42.384Z,1028.88
2017-01-21T01:49:52.688Z,1028.89
2017-01-21T01:51:02.186Z,1028.82
2017-01-21T01:52:12.497Z,1028.74
2017-01-21T01:53:23.180Z,1028.74
2017-01-21T01:54:32.683Z,1028.71
2017-01-21T01:55:42.959Z,1028.71
2017-01-21T01:56:52.877Z,1028.68
2017-01-21T01:58:03.645Z,1028.7
2017-01-21T01:59:13.940Z,1028.65
2017-01-21T02:00:24.225Z,1028.67
2017-01-21T02:01:34.524Z,1028.67
2017-01-21T02:02:44.814Z,1028.64
2017-01-21T02:03:54.319Z,1028.65
2017-01-21T02:05:05.004Z,1028.65
2017-01-21T02:06:14.899Z,1028.66
2017-01-21T02:07:24.790Z,1028.67
2017-01-21T02:08:35.470Z,1028.65
2017-01-21T02:09:45.354Z,1028.61
2017-01-21T02:10:54.852Z,1028.66
2017-01-21T02:12:04.406Z,1028.63
2017-01-21T02:13:14.312Z,1028.59
2017-01-21T02:14:24.643Z,1028.58
2017-01-21T02:15:34.546Z,1028.6
2017-01-21T02:16:45.240Z,1028.64
2017-01-21T02:17:55.535Z,1028.62
2017-01-21T02:19:05.822Z,1028.58
2017-01-21T02:20:16.132Z,1028.52
2017-01-21T02:21:26.016Z,1028.51
2017-01-21T02:22:36.310Z,1028.55
2017-01-21T02:23:46.623Z,1028.51
2017-01-21T02:24:57.349Z,1028.55
2017-01-21T02:26:07.238Z,1028.59
2017-01-21T02:27:17.133Z,1028.54
2017-01-21T02:28:27.811Z,1028.52
2017-01-21T02:29:38.090Z,1028.5
2017-01-21T02:30:48.008Z,1028.52
2017-01-21T02:31:58.305Z,1028.51
2017-01-21T02:33:08.992Z,1028.48
2017-01-21T02:34:19.297Z,1028.47
2017-01-21T02:35:29.205Z,1028.44
2017-01-21T02:36:39.486Z,1028.43
2017-01-21T02:37:48.988Z,1028.42
2017-01-21T02:38:58.494Z,1028.42
2017-01-21T02:40:08.286Z,1028.42
2017-01-21T02:41:17.399Z,1028.39
2017-01-21T02:42:27.696Z,1028.41
2017-01-21T02:43:37.976Z,1028.34
2017-01-21T02:44:47.470Z,1028.37
2017-01-21T02:45:57.363Z,1028.35
2017-01-21T02:47:07.655Z,1028.35
2017-01-21T02:48:17.568Z,1028.35
2017-01-21T02:49:28.243Z,1028.32
2017-01-21T02:50:38.534Z,1028.33
2017-01-21T02:51:48.439Z,1028.31
2017-01-21T02:52:58.728Z,1028.26
2017-01-21T02:54:09.023Z,1028.21
2017-01-21T02:55:18.126Z,1028.22
2017-01-21T02:56:28.411Z,1028.14
2017-01-21T02:57:38.701Z,1028.16
2017-01-21T02:58:48.753Z,1028.17
2017-01-21T02:59:59.102Z,1028.12
2017-01-21T03:01:09.805Z,1028.11
2017-01-21T03:02:20.495Z,1028.09
2017-01-21T03:03:30.795Z,1028.09
2017-01-21T03:04:41.090Z,1028.06
2017-01-21T03:05:51.773Z,1028.05
2017-01-21T03:07:01.378Z,1028.06
2017-01-21T03:08:11.677Z,1028.06
2017-01-21T03:09:21.574Z,1028.1
2017-01-21T03:10:32.250Z,1028.07
2017-01-21T03:11:41.350Z,1028.08
2017-01-21T03:12:51.249Z,1028.09
2017-01-21T03:14:01.173Z,1028.08
2017-01-21T03:15:11.464Z,1028.04
2017-01-21T03:16:22.163Z,1028.05
2017-01-21T03:17:32.059Z,1028.03
2017-01-21T03:18:42.104Z,1028.02
2017-01-21T03:19:52.383Z,1028.01
2017-01-21T03:21:02.278Z,1027.94
2017-01-21T03:22:12.563Z,1027.92
2017-01-21T03:23:22.452Z,1027.92
2017-01-21T03:24:31.951Z,1027.9
2017-01-21T03:25:42.262Z,1027.89
2017-01-21T03:26:52.936Z,1027.9
2017-01-21T03:28:03.268Z,1027.88
2017-01-21T03:29:13.166Z,1027.97
2017-01-21T03:30:23.053Z,1027.95
2017-01-21T03:31:33.344Z,1027.99
2017-01-21T03:32:43.260Z,1027.99
2017-01-21T03:33:53.557Z,1027.99
2017-01-21T03:35:03.450Z,1028.01
2017-01-21T03:36:14.158Z,1028.02
2017-01-21T03:37:22.870Z,1028
2017-01-21T03:38:33.169Z,1028.03
2017-01-21T03:39:43.845Z,1027.98
2017-01-21T03:40:53.739Z,1027.98
2017-01-21T03:42:03.694Z,1027.99
2017-01-21T03:43:13.981Z,1027.99
2017-01-21T03:44:23.894Z,1028.02
2017-01-21T03:45:33.797Z,1027.98
2017-01-21T03:46:44.476Z,1027.95
2017-01-21T03:47:55.190Z,1027.96
2017-01-21T03:49:04.710Z,1027.94
2017-01-21T03:50:14.603Z,1027.89
2017-01-21T03:51:25.038Z,1027.92
2017-01-21T03:52:34.928Z,1027.94
2017-01-21T03:53:44.833Z,1028.01
2017-01-21T03:54:54.330Z,1027.96
2017-01-21T03:56:04.273Z,1028
2017-01-21T03:57:14.173Z,1028.03
2017-01-21T03:58:24.093Z,1027.99
2017-01-21T03:59:34.003Z,1028.06
2017-01-21T04:00:44.313Z,1028.06
2017-01-21T04:01:54.628Z,1028.03
2017-01-21T04:03:05.311Z,1028.03
2017-01-21T04:04:15.597Z,1028.01
2017-01-21T04:05:25.884Z,1027.97
2017-01-21T04:06:36.165Z,1027.99
2017-01-21T04:07:46.485Z,1028.04
2017-01-21T04:08:56.382Z,1028.05
2017-01-21T04:10:06.276Z,1028.07
2017-01-21T04:11:16.577Z,1028.06
2017-01-21T04:12:26.079Z,1028.09
2017-01-21T04:13:36.372Z,1028.05
2017-01-21T04:14:46.278Z,1028.08
2017-01-21T04:15:56.572Z,1028.01
2017-01-21T04:17:06.471Z,1028.02
2017-01-21T04:18:16.756Z,1028
2017-01-21T04:19:27.033Z,1027.99
2017-01-21T04:20:36.922Z,1027.99
2017-01-21T04:21:46.822Z,1027.99
2017-01-21T04:22:56.718Z,1028.02
2017-01-21T04:24:06.997Z,1028.06
2017-01-21T04:25:16.903Z,1028.07
2017-01-21T04:26:27.182Z,1028.06
2017-01-21T04:27:37.507Z,1028.06
2017-01-21T04:28:47.415Z,1028.07
2017-01-21T04:29:57.310Z,1028.07
2017-01-21T04:31:07.196Z,1028.06
2017-01-21T04:32:16.698Z,1028.07
2017-01-21T04:33:27.404Z,1028.05
2017-01-21T04:34:38.247Z,1028.07
2017-01-21T04:35:48.152Z,1028.06
2017-01-21T04:36:58.052Z,1028.03
2017-01-21T04:38:07.946Z,1028.04
2017-01-21T04:39:17.845Z,1028.03
2017-01-21T04:40:28.137Z,1027.97
2017-01-21T04:41:38.034Z,1028.02
2017-01-21T04:42:48.673Z,1028
2017-01-21T04:43:58.967Z,1028.03
2017-01-21T04:45:08.859Z,1028.08
2017-01-21T04:46:19.143Z,1028.08
2017-01-21T04:47:29.069Z,1028.07
2017-01-21T04:48:39.371Z,1028.05
2017-01-21T04:49:49.280Z,1028.07
2017-01-21T04:50:59.197Z,1028.02
2017-01-21T04:52:09.477Z,1028.02
2017-01-21T04:53:19.764Z,1027.99
2017-01-21T04:54:30.040Z,1027.99
2017-01-21T04:55:40.316Z,1028.03
2017-01-21T04:56:51.026Z,1028.01
2017-01-21T04:58:00.913Z,1028.05
2017-01-21T04:59:11.664Z,1028.07
2017-01-21T05:00:22.358Z,1028.07
2017-01-21T05:01:32.664Z,1028.08
2017-01-21T05:02:42.960Z,1028.1
2017-01-21T05:03:52.853Z,1028.11
2017-01-21T05:05:03.143Z,1028.14
2017-01-21T05:06:13.810Z,1028.11
2017-01-21T05:07:23.727Z,1028.16
2017-01-21T05:08:34.039Z,1028.13
2017-01-21T05:09:44.325Z,1028.11
2017-01-21T05:10:54.220Z,1028.15
2017-01-21T05:12:04.516Z,1028.14
2017-01-21T05:13:15.198Z,1028.1
2017-01-21T05:14:25.888Z,1028.1
2017-01-21T05:15:35.389Z,1028.11
2017-01-21T05:16:45.278Z,1028.13
2017-01-21T05:17:55.181Z,1028.17
2017-01-21T05:19:05.859Z,1028.16
2017-01-21T05:20:16.150Z,1028.18
2017-01-21T05:21:25.637Z,1028.16
2017-01-21T05:22:36.340Z,1028.18
2017-01-21T05:23:46.632Z,1028.16
2017-01-21T05:24:55.755Z,1028.17
2017-01-21T05:26:06.045Z,1028.16
2017-01-21T05:27:16.319Z,1028.12
2017-01-21T05:28:26.215Z,1028.08
2017-01-21T05:29:36.113Z,1028.06
2017-01-21T05:30:46.781Z,1028.05
2017-01-21T05:31:57.453Z,1028.07
2017-01-21T05:33:07.740Z,1028.08
2017-01-21T05:34:18.038Z,1028.15
2017-01-21T05:35:27.932Z,1028.12
2017-01-21T05:36:38.219Z,1028.13
2017-01-21T05:37:48.914Z,1028.18
2017-01-21T05:38:58.804Z,1028.2
2017-01-21T05:40:07.918Z,1028.22
2017-01-21T05:41:18.606Z,1028.21
2017-01-21T05:42:28.605Z,1028.16
2017-01-21T05:43:38.895Z,1028.15
2017-01-21T05:44:49.565Z,1028.15
2017-01-21T05:45:59.454Z,1028.15
2017-01-21T05:47:08.940Z,1028.18
2017-01-21T05:48:18.830Z,1028.22
2017-01-21T05:49:29.123Z,1028.18
2017-01-21T05:50:38.631Z,1028.24
2017-01-21T05:51:48.664Z,1028.2
2017-01-21T05:52:59.188Z,1028.24
2017-01-21T05:54:09.082Z,1028.3
2017-01-21T05:55:18.579Z,1028.26
2017-01-21T05:56:28.479Z,1028.29
2017-01-21T05:57:38.770Z,1028.28
2017-01-21T05:58:48.826Z,1028.35
2017-01-21T05:59:58.710Z,1028.35
2017-01-21T06:01:09.394Z,1028.31
2017-01-21T06:02:19.720Z,1028.28
2017-01-21T06:03:30.410Z,1028.3
2017-01-21T06:04:40.317Z,1028.27
2017-01-21T06:05:50.616Z,1028.21
2017-01-21T06:07:00.119Z,1028.23
2017-01-21T06:08:10.014Z,1028.21
2017-01-21T06:09:19.917Z,1028.25
2017-01-21T06:10:30.209Z,1028.25
2017-01-21T06:11:39.710Z,1028.21
2017-01-21T06:12:50.016Z,1028.27
2017-01-21T06:14:00.302Z,1028.26
2017-01-21T06:15:10.194Z,1028.28
2017-01-21T06:16:20.492Z,1028.27
2017-01-21T06:17:30.787Z,1028.33
2017-01-21T06:18:41.085Z,1028.33
2017-01-21T06:19:51.767Z,1028.31
2017-01-21T06:21:02.051Z,1028.3
2017-01-21T06:22:11.949Z,1028.29
2017-01-21T06:23:22.627Z,1028.31
2017-01-21T06:24:32.133Z,1028.36
2017-01-21T06:25:42.410Z,1028.31
2017-01-21T06:26:52.700Z,1028.35
2017-01-21T06:28:02.983Z,1028.39
2017-01-21T06:29:12.486Z,1028.35
2017-01-21T06:30:22.394Z,1028.39
2017-01-21T06:31:32.306Z,1028.33
2017-01-21T06:32:41.795Z,1028.39
2017-01-21T06:33:52.088Z,1028.37
2017-01-21T06:35:02.391Z,1028.37
2017-01-21T06:36:12.294Z,1028.38
2017-01-21T06:37:22.192Z,1028.35
2017-01-21T06:38:32.873Z,1028.38
2017-01-21T06:39:43.563Z,1028.41
2017-01-21T06:40:53.845Z,1028.41
2017-01-21T06:42:04.138Z,1028.44
2017-01-21T06:43:13.241Z,1028.44
2017-01-21T06:44:23.939Z,1028.49
2017-01-21T06:45:33.831Z,1028.45
2017-01-21T06:46:44.520Z,1028.44
2017-01-21T06:47:54.413Z,1028.43
2017-01-21T06:49:04.696Z,1028.41
2017-01-21T06:50:15.385Z,1028.36
2017-01-21T06:51:24.892Z,1028.38
2017-01-21T06:52:35.200Z,1028.37
2017-01-21T06:53:45.092Z,1028.35
2017-01-21T06:54:54.587Z,1028.38
2017-01-21T06:56:04.894Z,1028.36
2017-01-21T06:57:15.188Z,1028.35
2017-01-21T06:58:25.077Z,1028.37
2017-01-21T06:59:33.811Z,1028.37
2017-01-21T07:00:43.715Z,1028.35
2017-01-21T07:01:54.005Z,1028.37
2017-01-21T07:03:03.891Z,1028.39
2017-01-21T07:04:13.392Z,1028.4
2017-01-21T07:05:23.293Z,1028.39
2017-01-21T07:06:33.593Z,1028.41
2017-01-21T07:07:44.285Z,1028.4
2017-01-21T07:08:54.382Z,1028.42
2017-01-21T07:10:04.286Z,1028.41
2017-01-21T07:11:14.973Z,1028.41
2017-01-21T07:12:25.649Z,1028.42
2017-01-21T07:13:36.341Z,1028.42
2017-01-21T07:14:46.632Z,1028.43
2017-01-21T07:15:56.136Z,1028.41
2017-01-21T07:17:06.440Z,1028.46
2017-01-21T07:18:16.752Z,1028.41
2017-01-21T07:19:26.649Z,1028.44
2017-01-21T07:20:37.024Z,1028.45
2017-01-21T07:21:47.310Z,1028.37
2017-01-21T07:22:57.605Z,1028.41
2017-01-21T07:24:07.903Z,1028.39
2017-01-21T07:25:17.793Z,1028.43
2017-01-21T07:26:28.085Z,1028.47
2017-01-21T07:27:37.984Z,1028.42
2017-01-21T07:28:47.886Z,1028.42
2017-01-21T07:29:57.954Z,1028.42
2017-01-21T07:31:08.630Z,1028.41
2017-01-21T07:32:18.924Z,1028.38
2017-01-21T07:33:29.215Z,1028.37
2017-01-21T07:34:38.725Z,1028.39
2017-01-21T07:35:49.422Z,1028.4
2017-01-21T07:36:59.743Z,1028.42
2017-01-21T07:38:09.639Z,1028.47
2017-01-21T07:39:19.544Z,1028.43
2017-01-21T07:40:30.239Z,1028.47
2017-01-21T07:41:40.521Z,1028.51
2017-01-21T07:42:50.415Z,1028.5
2017-01-21T07:44:01.136Z,1028.49
2017-01-21T07:45:10.655Z,1028.55
2017-01-21T07:46:20.948Z,1028.55
2017-01-21T07:47:30.449Z,1028.54
2017-01-21T07:48:40.339Z,1028.57
2017-01-21T07:49:50.229Z,1028.54
2017-01-21T07:51:00.139Z,1028.47
2017-01-21T07:52:10.435Z,1028.51
2017-01-21T07:53:20.740Z,1028.51
2017-01-21T07:54:31.418Z,1028.55
2017-01-21T07:55:41.716Z,1028.57
2017-01-21T07:56:52.047Z,1028.6
2017-01-21T07:58:01.941Z,1028.59
2017-01-21T07:59:12.231Z,1028.59
2017-01-21T08:00:21.747Z,1028.58
2017-01-21T08:01:32.425Z,1028.55
2017-01-21T08:02:42.720Z,1028.56
2017-01-21T08:03:53.015Z,1028.53
2017-01-21T08:05:02.931Z,1028.54
2017-01-21T08:06:13.223Z,1028.55
2017-01-21T08:07:23.917Z,1028.58
2017-01-21T08:08:34.225Z,1028.62
2017-01-21T08:09:44.552Z,1028.64
2017-01-21T08:10:54.440Z,1028.65
2017-01-21T08:12:04.726Z,1028.65
2017-01-21T08:13:15.485Z,1028.67
2017-01-21T08:14:24.997Z,1028.65
2017-01-21T08:15:35.323Z,1028.64
2017-01-21T08:16:45.624Z,1028.65
2017-01-21T08:17:55.918Z,1028.7
2017-01-21T08:19:05.413Z,1028.67
2017-01-21T08:20:15.710Z,1028.66
2017-01-21T08:21:25.601Z,1028.71
2017-01-21T08:22:36.284Z,1028.69
2017-01-21T08:23:46.182Z,1028.72
2017-01-21T08:24:56.075Z,1028.72
2017-01-21T08:26:06.366Z,1028.69
2017-01-21T08:27:15.904Z,1028.7
2017-01-21T08:28:26.218Z,1028.71
2017-01-21T08:29:36.931Z,1028.74
2017-01-21T08:30:46.442Z,1028.76
2017-01-21T08:31:56.836Z,1028.7
2017-01-21T08:33:06.759Z,1028.69
2017-01-21T08:34:16.683Z,1028.68
2017-01-21T08:35:27.384Z,1028.66
2017-01-21T08:36:37.700Z,1028.71
2017-01-21T08:37:48.371Z,1028.75
2017-01-21T08:38:58.674Z,1028.72
2017-01-21T08:40:08.971Z,1028.76
2017-01-21T08:41:18.877Z,1028.71
2017-01-21T08:42:28.771Z,1028.71
2017-01-21T08:43:39.064Z,1028.72
2017-01-21T08:44:49.436Z,1028.72
2017-01-21T08:45:59.743Z,1028.77
2017-01-21T08:47:10.447Z,1028.74
2017-01-21T08:48:20.359Z,1028.75
2017-01-21T08:49:30.702Z,1028.75
2017-01-21T08:50:40.213Z,1028.7
2017-01-21T08:51:50.507Z,1028.72
2017-01-21T08:53:00.403Z,1028.69
2017-01-21T08:54:09.509Z,1028.73
2017-01-21T08:55:19.827Z,1028.74
2017-01-21T08:56:29.736Z,1028.74
2017-01-21T08:57:39.640Z,1028.78
2017-01-21T08:58:49.574Z,1028.78
2017-01-21T08:59:59.476Z,1028.81
2017-01-21T09:01:09.769Z,1028.84
2017-01-21T09:02:20.468Z,1028.83
2017-01-21T09:03:30.767Z,1028.87
2017-01-21T09:04:41.055Z,1028.86
2017-01-21T09:05:51.015Z,1028.87
2017-01-21T09:07:00.908Z,1028.81
2017-01-21T09:08:11.219Z,1028.84
2017-01-21T09:09:20.728Z,1028.81
2017-01-21T09:10:31.426Z,1028.82
2017-01-21T09:11:42.167Z,1028.82
2017-01-21T09:12:52.473Z,1028.83
2017-01-21T09:14:02.771Z,1028.79
2017-01-21T09:15:13.068Z,1028.84
2017-01-21T09:16:23.754Z,1028.8
2017-01-21T09:17:34.055Z,1028.8
2017-01-21T09:18:43.960Z,1028.8
2017-01-21T09:19:54.252Z,1028.8
2017-01-21T09:21:04.949Z,1028.82
2017-01-21T09:22:14.854Z,1028.8
2017-01-21T09:23:24.763Z,1028.81
2017-01-21T09:24:35.461Z,1028.79
2017-01-21T09:25:45.356Z,1028.82
2017-01-21T09:26:54.853Z,1028.84
2017-01-21T09:28:04.764Z,1028.86
2017-01-21T09:29:14.277Z,1028.87
2017-01-21T09:30:24.578Z,1028.9
2017-01-21T09:31:34.079Z,1028.91
2017-01-21T09:32:44.034Z,1028.93
2017-01-21T09:33:54.348Z,1028.95
2017-01-21T09:35:04.236Z,1028.94
2017-01-21T09:36:14.925Z,1028.96
2017-01-21T09:37:25.230Z,1028.92
2017-01-21T09:38:35.140Z,1028.97
2017-01-21T09:39:45.047Z,1028.96
2017-01-21T09:40:54.954Z,1028.96
2017-01-21T09:42:05.634Z,1028.94
2017-01-21T09:43:15.930Z,1029.02
2017-01-21T09:44:25.844Z,1028.96
2017-01-21T09:45:36.547Z,1028.95
2017-01-21T09:46:46.443Z,1028.95
2017-01-21T09:47:55.948Z,1028.89
2017-01-21T09:49:05.849Z,1028.89
2017-01-21T09:50:16.552Z,1028.83
2017-01-21T09:51:26.464Z,1028.86
2017-01-21T09:52:36.403Z,1028.84
2017-01-21T09:53:46.312Z,1028.84
2017-01-21T09:54:56.210Z,1028.9
2017-01-21T09:56:05.323Z,1028.88
2017-01-21T09:57:15.630Z,1028.87
2017-01-21T09:58:25.534Z,1028.87
2017-01-21T09:59:35.439Z,1028.83
2017-01-21T10:00:46.134Z,1028.84
2017-01-21T10:01:56.448Z,1028.81
2017-01-21T10:03:07.137Z,1028.81
2017-01-21T10:04:17.430Z,1028.83
2017-01-21T10:05:27.715Z,1028.8
2017-01-21T10:06:37.619Z,1028.87
2017-01-21T10:07:48.319Z,1028.84
2017-01-21T10:08:59.024Z,1028.9
2017-01-21T10:10:08.932Z,1028.86
2017-01-21T10:11:18.844Z,1028.87
2017-01-21T10:12:29.520Z,1028.82
2017-01-21T10:13:39.451Z,1028.8
2017-01-21T10:14:49.761Z,1028.83
2017-01-21T10:15:59.664Z,1028.81
2017-01-21T10:17:09.555Z,1028.83
2017-01-21T10:18:19.873Z,1028.82
2017-01-21T10:19:30.570Z,1028.84
2017-01-21T10:20:40.462Z,1028.81
2017-01-21T10:21:50.780Z,1028.79
2017-01-21T10:23:01.075Z,1028.71
2017-01-21T10:24:11.383Z,1028.73
2017-01-21T10:25:21.301Z,1028.72
2017-01-21T10:26:31.260Z,1028.73
2017-01-21T10:27:41.164Z,1028.76
2017-01-21T10:28:51.109Z,1028.77
2017-01-21T10:30:01.411Z,1028.75
2017-01-21T10:31:11.732Z,1028.75
2017-01-21T10:32:22.421Z,1028.72
2017-01-21T10:33:32.316Z,1028.72
2017-01-21T10:34:42.205Z,1028.63
2017-01-21T10:35:51.736Z,1028.65
2017-01-21T10:37:02.031Z,1028.61
2017-01-21T10:38:12.729Z,1028.62
2017-01-21T10:39:22.641Z,1028.65
2017-01-21T10:40:32.926Z,1028.63
2017-01-21T10:41:42.431Z,1028.69
2017-01-21T10:42:53.343Z,1028.65
2017-01-21T10:44:03.653Z,1028.7
2017-01-21T10:45:13.958Z,1028.66
2017-01-21T10:46:24.244Z,1028.65
2017-01-21T10:47:34.541Z,1028.59
2017-01-21T10:48:44.442Z,1028.59
2017-01-21T10:49:54.735Z,1028.61
2017-01-21T10:51:05.029Z,1028.58
2017-01-21T10:52:15.326Z,1028.59
2017-01-21T10:53:25.627Z,1028.59
2017-01-21T10:54:36.313Z,1028.6
2017-01-21T10:55:46.619Z,1028.62
2017-01-21T10:56:56.913Z,1028.59
2017-01-21T10:58:06.840Z,1028.53
2017-01-21T10:59:17.176Z,1028.52
2017-01-21T11:00:26.697Z,1028.52
2017-01-21T11:01:37.005Z,1028.51
2017-01-21T11:02:47.700Z,1028.47
2017-01-21T11:03:57.646Z,1028.46
2017-01-21T11:05:08.339Z,1028.47
2017-01-21T11:06:18.240Z,1028.5
2017-01-21T11:07:28.924Z,1028.5
2017-01-21T11:08:38.817Z,1028.46
2017-01-21T11:09:48.706Z,1028.47
2017-01-21T11:10:58.602Z,1028.46
2017-01-21T11:12:08.904Z,1028.45
2017-01-21T11:13:18.808Z,1028.44
2017-01-21T11:14:29.496Z,1028.43
2017-01-21T11:15:40.219Z,1028.4
2017-01-21T11:16:50.504Z,1028.4
2017-01-21T11:18:00.799Z,1028.41
2017-01-21T11:19:11.119Z,1028.4
2017-01-21T11:20:21.039Z,1028.37
2017-01-21T11:21:30.942Z,1028.36
2017-01-21T11:22:41.645Z,1028.34
2017-01-21T11:23:51.925Z,1028.32
2017-01-21T11:25:01.867Z,1028.3
2017-01-21T11:26:11.787Z,1028.28
2017-01-21T11:27:22.100Z,1028.29
2017-01-21T11:28:32.833Z,1028.3
2017-01-21T11:29:43.135Z,1028.3
2017-01-21T11:30:53.045Z,1028.3
2017-01-21T11:32:02.562Z,1028.3
2017-01-21T11:33:13.260Z,1028.28
2017-01-21T11:34:23.564Z,1028.26
2017-01-21T11:35:33.844Z,1028.26
2017-01-21T11:36:43.751Z,1028.24
2017-01-21T11:37:53.649Z,1028.27
2017-01-21T11:39:03.563Z,1028.26
2017-01-21T11:40:13.851Z,1028.27
2017-01-21T11:41:23.761Z,1028.3
2017-01-21T11:42:34.469Z,1028.37
2017-01-21T11:43:44.785Z,1028.33
2017-01-21T11:44:55.072Z,1028.35
2017-01-21T11:46:05.393Z,1028.27
2017-01-21T11:47:15.321Z,1028.3
2017-01-21T11:48:25.622Z,1028.27
2017-01-21T11:49:35.562Z,1028.23
2017-01-21T11:50:46.271Z,1028.24
2017-01-21T11:51:56.565Z,1028.2
2017-01-21T11:53:06.866Z,1028.22
2017-01-21T11:54:17.158Z,1028.24
2017-01-21T11:55:27.598Z,1028.18
2017-01-21T11:56:38.282Z,1028.18
2017-01-21T11:57:48.187Z,1028.19
2017-01-21T11:58:58.873Z,1028.2
2017-01-21T12:00:09.553Z,1028.23
2017-01-21T12:01:20.250Z,1028.23
2017-01-21T12:02:29.768Z,1028.21
2017-01-21T12:03:40.471Z,1028.22
2017-01-21T12:04:51.150Z,1028.18
2017-01-21T12:06:00.260Z,1028.16
2017-01-21T12:07:10.180Z,1028.22
2017-01-21T12:08:20.922Z,1028.15
2017-01-21T12:09:31.221Z,1028.18
2017-01-21T12:10:41.905Z,1028.16
2017-01-21T12:11:51.812Z,1028.14
2017-01-21T12:13:01.315Z,1028.12
2017-01-21T12:14:11.235Z,1028.11
2017-01-21T12:15:21.137Z,1028.12
2017-01-21T12:16:31.054Z,1028.07
2017-01-21T12:17:40.581Z,1028.09
2017-01-21T12:18:50.884Z,1028.11
2017-01-21T12:20:01.605Z,1028.07
2017-01-21T12:21:11.532Z,1028.07
2017-01-21T12:22:21.461Z,1028.07
2017-01-21T12:23:32.162Z,1028.06
2017-01-21T12:24:42.077Z,1028.04
2017-01-21T12:25:52.370Z,1028.07
2017-01-21T12:27:02.673Z,1028.06
2017-01-21T12:28:13.385Z,1028.05
2017-01-21T12:29:24.107Z,1028.08
2017-01-21T12:30:34.801Z,1028.07
2017-01-21T12:31:45.109Z,1028.08
2017-01-21T12:32:55.831Z,1028.05
2017-01-21T12:34:06.246Z,1028.08
2017-01-21T12:35:16.987Z,1028.05
2017-01-21T12:36:27.326Z,1028.07
2017-01-21T12:37:37.646Z,1027.99
2017-01-21T12:38:47.985Z,1027.95
2017-01-21T12:39:58.756Z,1027.9
2017-01-21T12:41:09.105Z,1027.88
2017-01-21T12:42:19.830Z,1027.88
2017-01-21T12:43:30.157Z,1027.88
2017-01-21T12:44:40.479Z,1027.9
2017-01-21T12:45:51.219Z,1027.9
2017-01-21T12:47:01.549Z,1027.91
2017-01-21T12:48:12.279Z,1027.91
2017-01-21T12:49:23.069Z,1027.91
2017-01-21T12:50:33.843Z,1027.86
2017-01-21T12:51:43.773Z,1027.84
2017-01-21T12:52:53.693Z,1027.88
2017-01-21T12:54:03.631Z,1027.81
2017-01-21T12:55:14.363Z,1027.8
2017-01-21T12:56:25.086Z,1027.8
2017-01-21T12:57:35.019Z,1027.76
2017-01-21T12:58:45.351Z,1027.77
2017-01-21T12:59:56.072Z,1027.74
2017-01-21T13:01:06.395Z,1027.78
2017-01-21T13:02:16.743Z,1027.73
2017-01-21T13:03:27.083Z,1027.74
2017-01-21T13:04:37.803Z,1027.7
2017-01-21T13:05:48.539Z,1027.69
2017-01-21T13:06:59.266Z,1027.68
2017-01-21T13:08:09.597Z,1027.68
2017-01-21T13:09:19.935Z,1027.65
2017-01-21T13:10:30.655Z,1027.7
2017-01-21T13:11:41.391Z,1027.69
2017-01-21T13:12:52.108Z,1027.72
2017-01-21T13:14:02.828Z,1027.69
2017-01-21T13:15:13.545Z,1027.71
2017-01-21T13:16:24.281Z,1027.64
2017-01-21T13:17:34.611Z,1027.66
2017-01-21T13:18:45.340Z,1027.63
2017-01-21T13:19:56.068Z,1027.65
2017-01-21T13:21:06.810Z,1027.65
2017-01-21T13:22:17.194Z,1027.68
2017-01-21T13:23:27.917Z,1027.67
2017-01-21T13:24:38.246Z,1027.65
2017-01-21T13:25:48.553Z,1027.65
2017-01-21T13:26:59.263Z,1027.65
2017-01-21T13:28:10.015Z,1027.64
2017-01-21T13:29:19.951Z,1027.69
2017-01-21T13:30:30.291Z,1027.64
2017-01-21T13:31:41.023Z,1027.65
2017-01-21T13:32:51.360Z,1027.63
2017-01-21T13:34:01.328Z,1027.65
2017-01-21T13:35:12.085Z,1027.64
2017-01-21T13:36:22.809Z,1027.63
2017-01-21T13:37:33.136Z,1027.63
2017-01-21T13:38:43.846Z,1027.63
2017-01-21T13:39:54.179Z,1027.65
2017-01-21T13:41:05.007Z,1027.64
2017-01-21T13:42:15.350Z,1027.68
2017-01-21T13:43:25.670Z,1027.73
2017-01-21T13:44:35.991Z,1027.71
2017-01-21T13:45:46.313Z,1027.74
2017-01-21T13:46:56.242Z,1027.74
2017-01-21T13:48:06.586Z,1027.71
2017-01-21T13:49:16.918Z,1027.71
2017-01-21T13:50:27.248Z,1027.73
2017-01-21T13:51:37.165Z,1027.68
2017-01-21T13:52:46.705Z,1027.69
2017-01-21T13:53:57.034Z,1027.72
2017-01-21T13:55:07.357Z,1027.7
2017-01-21T13:56:17.745Z,1027.73
2017-01-21T13:57:27.662Z,1027.69
2017-01-21T13:58:37.985Z,1027.72
2017-01-21T13:59:48.700Z,1027.69
2017-01-21T14:00:58.647Z,1027.66
2017-01-21T14:02:09.376Z,1027.64
2017-01-21T14:03:19.710Z,1027.64
2017-01-21T14:04:30.037Z,1027.68
2017-01-21T14:05:40.354Z,1027.64
2017-01-21T14:06:51.123Z,1027.66
2017-01-21T14:08:01.459Z,1027.68
2017-01-21T14:09:12.188Z,1027.65
2017-01-21T14:10:22.902Z,1027.65
2017-01-21T14:11:33.630Z,1027.59